sensor_id;sensor_type;location;lat;lon;timestamp;P1;durP1;ratioP1;P2;durP2;ratioP2
20533;SDS011;12929;56.822;26.056;2023-12-28T00:00:43;2.03;;;0.90;;
20533;SDS011;12929;56.822;26.056;2023-12-28T00:03:10;2.53;;;1.10;;
20533;SDS011;12929;56.822;26.056;2023-12-28T00:05:38;3.25;;;1.10;;
20533;SDS011;12929;56.822;26.056;2023-12-28T00:08:06;3.25;;;1.33;;
20533;SDS011;12929;56.822;26.056;2023-12-28T00:10:33;1.90;;;1.00;;
20533;SDS011;12929;56.822;26.056;2023-12-28T00:13:01;3.13;;;1.30;;
20533;SDS011;12929;56.822;26.056;2023-12-28T00:15:28;2.67;;;1.45;;
20533;SDS011;12929;56.822;26.056;2023-12-28T00:17:55;1.25;;;0.88;;
20533;SDS011;12929;56.822;26.056;2023-12-28T00:20:23;2.63;;;1.13;;
20533;SDS011;12929;56.822;26.056;2023-12-28T00:22:51;2.50;;;1.38;;
20533;SDS011;12929;56.822;26.056;2023-12-28T00:25:18;1.63;;;0.85;;
20533;SDS011;12929;56.822;26.056;2023-12-28T00:27:46;2.80;;;1.00;;
20533;SDS011;12929;56.822;26.056;2023-12-28T00:30:13;3.03;;;0.95;;
20533;SDS011;12929;56.822;26.056;2023-12-28T00:32:44;3.40;;;0.98;;
20533;SDS011;12929;56.822;26.056;2023-12-28T00:35:12;2.60;;;1.23;;
20533;SDS011;12929;56.822;26.056;2023-12-28T00:37:40;2.63;;;1.10;;
20533;SDS011;12929;56.822;26.056;2023-12-28T00:40:08;2.25;;;1.05;;
20533;SDS011;12929;56.822;26.056;2023-12-28T00:42:36;1.35;;;0.80;;
20533;SDS011;12929;56.822;26.056;2023-12-28T00:45:03;4.13;;;0.65;;
20533;SDS011;12929;56.822;26.056;2023-12-28T00:47:32;2.53;;;0.90;;
20533;SDS011;12929;56.822;26.056;2023-12-28T00:50:00;1.75;;;0.90;;
20533;SDS011;12929;56.822;26.056;2023-12-28T00:52:27;2.08;;;0.80;;
20533;SDS011;12929;56.822;26.056;2023-12-28T00:54:55;2.75;;;1.10;;
20533;SDS011;12929;56.822;26.056;2023-12-28T00:57:22;3.30;;;0.90;;
20533;SDS011;12929;56.822;26.056;2023-12-28T00:59:50;3.33;;;0.98;;
20533;SDS011;12929;56.822;26.056;2023-12-28T01:02:17;1.98;;;0.80;;
20533;SDS011;12929;56.822;26.056;2023-12-28T01:04:45;3.67;;;0.80;;
20533;SDS011;12929;56.822;26.056;2023-12-28T01:07:12;1.25;;;0.70;;
20533;SDS011;12929;56.822;26.056;2023-12-28T01:09:40;3.13;;;1.00;;
20533;SDS011;12929;56.822;26.056;2023-12-28T01:12:07;2.28;;;0.80;;
20533;SDS011;12929;56.822;26.056;2023-12-28T01:14:35;2.45;;;0.85;;
20533;SDS011;12929;56.822;26.056;2023-12-28T01:17:03;1.23;;;0.73;;
20533;SDS011;12929;56.822;26.056;2023-12-28T01:19:30;2.20;;;0.60;;
20533;SDS011;12929;56.822;26.056;2023-12-28T01:21:58;2.67;;;0.60;;
20533;SDS011;12929;56.822;26.056;2023-12-28T01:24:25;1.63;;;0.52;;
20533;SDS011;12929;56.822;26.056;2023-12-28T01:26:53;1.60;;;0.70;;
20533;SDS011;12929;56.822;26.056;2023-12-28T01:29:21;1.70;;;0.65;;
20533;SDS011;12929;56.822;26.056;2023-12-28T01:31:49;1.85;;;0.60;;
20533;SDS011;12929;56.822;26.056;2023-12-28T01:34:16;1.63;;;0.82;;
20533;SDS011;12929;56.822;26.056;2023-12-28T01:36:44;4.63;;;0.75;;
20533;SDS011;12929;56.822;26.056;2023-12-28T01:39:12;2.58;;;0.80;;
20533;SDS011;12929;56.822;26.056;2023-12-28T01:41:39;2.38;;;0.68;;
20533;SDS011;12929;56.822;26.056;2023-12-28T01:44:06;6.13;;;0.80;;
20533;SDS011;12929;56.822;26.056;2023-12-28T01:46:34;1.95;;;0.77;;
20533;SDS011;12929;56.822;26.056;2023-12-28T01:49:01;1.23;;;0.63;;
20533;SDS011;12929;56.822;26.056;2023-12-28T01:51:30;3.22;;;0.93;;
20533;SDS011;12929;56.822;26.056;2023-12-28T01:53:58;3.17;;;0.70;;
20533;SDS011;12929;56.822;26.056;2023-12-28T01:56:26;1.00;;;0.45;;
20533;SDS011;12929;56.822;26.056;2023-12-28T01:58:54;2.03;;;0.60;;
20533;SDS011;12929;56.822;26.056;2023-12-28T02:01:21;1.80;;;0.60;;
20533;SDS011;12929;56.822;26.056;2023-12-28T02:03:49;1.15;;;0.60;;
20533;SDS011;12929;56.822;26.056;2023-12-28T02:06:17;1.70;;;0.52;;
20533;SDS011;12929;56.822;26.056;2023-12-28T02:08:46;1.83;;;0.88;;
20533;SDS011;12929;56.822;26.056;2023-12-28T02:11:13;3.22;;;0.80;;
20533;SDS011;12929;56.822;26.056;2023-12-28T02:13:41;1.35;;;0.60;;
20533;SDS011;12929;56.822;26.056;2023-12-28T02:18:49;1.02;;;0.68;;
20533;SDS011;12929;56.822;26.056;2023-12-28T02:21:19;1.25;;;0.60;;
20533;SDS011;12929;56.822;26.056;2023-12-28T02:23:48;2.58;;;0.70;;
20533;SDS011;12929;56.822;26.056;2023-12-28T02:26:16;1.15;;;0.70;;
20533;SDS011;12929;56.822;26.056;2023-12-28T02:28:45;0.93;;;0.50;;
20533;SDS011;12929;56.822;26.056;2023-12-28T02:31:21;1.52;;;0.80;;
20533;SDS011;12929;56.822;26.056;2023-12-28T02:33:57;2.88;;;0.70;;
20533;SDS011;12929;56.822;26.056;2023-12-28T02:36:32;2.05;;;0.63;;
20533;SDS011;12929;56.822;26.056;2023-12-28T02:39:03;1.73;;;0.75;;
20533;SDS011;12929;56.822;26.056;2023-12-28T02:41:32;1.00;;;0.65;;
20533;SDS011;12929;56.822;26.056;2023-12-28T02:44:01;1.92;;;0.57;;
20533;SDS011;12929;56.822;26.056;2023-12-28T02:46:28;5.60;;;0.73;;
20533;SDS011;12929;56.822;26.056;2023-12-28T02:48:56;1.73;;;0.70;;
20533;SDS011;12929;56.822;26.056;2023-12-28T02:51:26;2.63;;;0.75;;
20533;SDS011;12929;56.822;26.056;2023-12-28T02:53:53;1.40;;;0.70;;
20533;SDS011;12929;56.822;26.056;2023-12-28T02:56:21;3.08;;;0.70;;
20533;SDS011;12929;56.822;26.056;2023-12-28T02:58:49;1.48;;;0.50;;
20533;SDS011;12929;56.822;26.056;2023-12-28T03:01:16;1.42;;;0.60;;
20533;SDS011;12929;56.822;26.056;2023-12-28T03:03:44;5.82;;;0.73;;
20533;SDS011;12929;56.822;26.056;2023-12-28T03:06:11;2.58;;;0.80;;
20533;SDS011;12929;56.822;26.056;2023-12-28T03:08:39;2.63;;;0.80;;
20533;SDS011;12929;56.822;26.056;2023-12-28T03:11:07;5.97;;;0.85;;
20533;SDS011;12929;56.822;26.056;2023-12-28T03:13:34;2.85;;;0.70;;
20533;SDS011;12929;56.822;26.056;2023-12-28T03:16:01;2.53;;;0.80;;
20533;SDS011;12929;56.822;26.056;2023-12-28T03:18:29;3.15;;;0.70;;
20533;SDS011;12929;56.822;26.056;2023-12-28T03:20:57;2.95;;;0.90;;
20533;SDS011;12929;56.822;26.056;2023-12-28T03:23:24;1.77;;;0.85;;
20533;SDS011;12929;56.822;26.056;2023-12-28T03:25:51;2.63;;;0.85;;
20533;SDS011;12929;56.822;26.056;2023-12-28T03:28:19;3.15;;;0.75;;
20533;SDS011;12929;56.822;26.056;2023-12-28T03:30:47;5.40;;;1.35;;
20533;SDS011;12929;56.822;26.056;2023-12-28T03:33:14;2.95;;;1.08;;
20533;SDS011;12929;56.822;26.056;2023-12-28T03:35:42;5.18;;;1.30;;
20533;SDS011;12929;56.822;26.056;2023-12-28T03:38:09;5.45;;;1.50;;
20533;SDS011;12929;56.822;26.056;2023-12-28T03:40:37;5.65;;;1.40;;
20533;SDS011;12929;56.822;26.056;2023-12-28T03:43:04;8.50;;;1.60;;
20533;SDS011;12929;56.822;26.056;2023-12-28T03:45:32;2.60;;;1.23;;
20533;SDS011;12929;56.822;26.056;2023-12-28T03:47:59;3.67;;;1.30;;
20533;SDS011;12929;56.822;26.056;2023-12-28T03:50:27;4.45;;;1.70;;
20533;SDS011;12929;56.822;26.056;2023-12-28T03:52:55;4.75;;;1.42;;
20533;SDS011;12929;56.822;26.056;2023-12-28T03:55:22;4.85;;;1.55;;
20533;SDS011;12929;56.822;26.056;2023-12-28T03:57:50;5.32;;;1.60;;
20533;SDS011;12929;56.822;26.056;2023-12-28T04:00:18;4.85;;;1.55;;
20533;SDS011;12929;56.822;26.056;2023-12-28T04:02:45;9.75;;;1.90;;
20533;SDS011;12929;56.822;26.056;2023-12-28T04:05:15;8.10;;;1.90;;
20533;SDS011;12929;56.822;26.056;2023-12-28T04:07:43;4.60;;;1.70;;
20533;SDS011;12929;56.822;26.056;2023-12-28T04:10:10;5.45;;;1.60;;
20533;SDS011;12929;56.822;26.056;2023-12-28T04:12:38;3.55;;;1.38;;
20533;SDS011;12929;56.822;26.056;2023-12-28T04:15:06;8.77;;;1.73;;
20533;SDS011;12929;56.822;26.056;2023-12-28T04:17:33;7.18;;;1.80;;
20533;SDS011;12929;56.822;26.056;2023-12-28T04:20:01;5.85;;;1.33;;
20533;SDS011;12929;56.822;26.056;2023-12-28T04:22:28;9.45;;;2.35;;
20533;SDS011;12929;56.822;26.056;2023-12-28T04:24:56;6.57;;;1.52;;
20533;SDS011;12929;56.822;26.056;2023-12-28T04:27:23;8.57;;;1.38;;
20533;SDS011;12929;56.822;26.056;2023-12-28T04:29:51;8.23;;;1.70;;
20533;SDS011;12929;56.822;26.056;2023-12-28T04:32:18;8.05;;;1.52;;
20533;SDS011;12929;56.822;26.056;2023-12-28T04:34:46;8.73;;;1.83;;
20533;SDS011;12929;56.822;26.056;2023-12-28T04:37:13;7.93;;;1.63;;
20533;SDS011;12929;56.822;26.056;2023-12-28T04:39:40;4.72;;;1.83;;
20533;SDS011;12929;56.822;26.056;2023-12-28T04:42:08;6.78;;;1.60;;
20533;SDS011;12929;56.822;26.056;2023-12-28T04:44:38;9.32;;;2.00;;
20533;SDS011;12929;56.822;26.056;2023-12-28T04:47:06;5.30;;;1.73;;
20533;SDS011;12929;56.822;26.056;2023-12-28T04:49:35;4.65;;;1.63;;
20533;SDS011;12929;56.822;26.056;2023-12-28T04:52:03;5.05;;;1.65;;
20533;SDS011;12929;56.822;26.056;2023-12-28T04:54:31;6.57;;;1.30;;
20533;SDS011;12929;56.822;26.056;2023-12-28T04:56:59;7.85;;;1.63;;
20533;SDS011;12929;56.822;26.056;2023-12-28T04:59:27;6.60;;;1.45;;
20533;SDS011;12929;56.822;26.056;2023-12-28T05:01:55;4.80;;;1.70;;
20533;SDS011;12929;56.822;26.056;2023-12-28T05:04:22;5.20;;;1.85;;
20533;SDS011;12929;56.822;26.056;2023-12-28T05:06:50;5.75;;;1.63;;
20533;SDS011;12929;56.822;26.056;2023-12-28T05:09:18;6.25;;;1.95;;
20533;SDS011;12929;56.822;26.056;2023-12-28T05:11:45;7.50;;;1.80;;
20533;SDS011;12929;56.822;26.056;2023-12-28T05:14:14;9.13;;;2.00;;
20533;SDS011;12929;56.822;26.056;2023-12-28T05:16:41;13.32;;;2.28;;
20533;SDS011;12929;56.822;26.056;2023-12-28T05:19:09;6.72;;;1.67;;
20533;SDS011;12929;56.822;26.056;2023-12-28T05:21:36;5.00;;;1.58;;
20533;SDS011;12929;56.822;26.056;2023-12-28T05:24:04;6.70;;;1.80;;
20533;SDS011;12929;56.822;26.056;2023-12-28T05:26:32;10.00;;;1.85;;
20533;SDS011;12929;56.822;26.056;2023-12-28T05:29:00;9.80;;;1.48;;
20533;SDS011;12929;56.822;26.056;2023-12-28T05:31:27;3.33;;;1.60;;
20533;SDS011;12929;56.822;26.056;2023-12-28T05:33:55;9.65;;;2.00;;
20533;SDS011;12929;56.822;26.056;2023-12-28T05:36:25;4.95;;;1.52;;
20533;SDS011;12929;56.822;26.056;2023-12-28T05:38:52;8.50;;;1.50;;
20533;SDS011;12929;56.822;26.056;2023-12-28T05:41:20;10.55;;;1.60;;
20533;SDS011;12929;56.822;26.056;2023-12-28T05:43:47;12.57;;;1.92;;
20533;SDS011;12929;56.822;26.056;2023-12-28T05:46:15;9.27;;;1.65;;
20533;SDS011;12929;56.822;26.056;2023-12-28T05:48:42;6.63;;;1.65;;
20533;SDS011;12929;56.822;26.056;2023-12-28T05:51:10;7.05;;;1.85;;
20533;SDS011;12929;56.822;26.056;2023-12-28T05:53:37;5.78;;;1.63;;
20533;SDS011;12929;56.822;26.056;2023-12-28T05:56:05;8.43;;;1.25;;
20533;SDS011;12929;56.822;26.056;2023-12-28T05:58:33;8.07;;;1.35;;
20533;SDS011;12929;56.822;26.056;2023-12-28T06:01:00;5.55;;;1.60;;
20533;SDS011;12929;56.822;26.056;2023-12-28T06:03:28;10.35;;;1.73;;
20533;SDS011;12929;56.822;26.056;2023-12-28T06:05:56;7.85;;;1.65;;
20533;SDS011;12929;56.822;26.056;2023-12-28T06:08:24;6.65;;;1.80;;
20533;SDS011;12929;56.822;26.056;2023-12-28T06:10:53;8.25;;;1.75;;
20533;SDS011;12929;56.822;26.056;2023-12-28T06:13:21;9.05;;;2.30;;
20533;SDS011;12929;56.822;26.056;2023-12-28T06:15:48;9.90;;;2.05;;
20533;SDS011;12929;56.822;26.056;2023-12-28T06:18:16;11.35;;;2.75;;
20533;SDS011;12929;56.822;26.056;2023-12-28T06:20:44;10.82;;;3.15;;
20533;SDS011;12929;56.822;26.056;2023-12-28T06:23:11;11.32;;;2.72;;
20533;SDS011;12929;56.822;26.056;2023-12-28T06:25:39;8.70;;;2.28;;
20533;SDS011;12929;56.822;26.056;2023-12-28T06:28:06;6.72;;;1.90;;
20533;SDS011;12929;56.822;26.056;2023-12-28T06:30:34;3.58;;;1.52;;
20533;SDS011;12929;56.822;26.056;2023-12-28T06:33:02;8.52;;;2.40;;
20533;SDS011;12929;56.822;26.056;2023-12-28T06:35:29;7.75;;;1.73;;
20533;SDS011;12929;56.822;26.056;2023-12-28T06:37:57;5.03;;;1.10;;
20533;SDS011;12929;56.822;26.056;2023-12-28T06:40:24;3.90;;;1.45;;
20533;SDS011;12929;56.822;26.056;2023-12-28T06:42:52;5.13;;;1.42;;
20533;SDS011;12929;56.822;26.056;2023-12-28T06:45:19;5.18;;;1.52;;
20533;SDS011;12929;56.822;26.056;2023-12-28T06:47:53;11.80;;;2.00;;
20533;SDS011;12929;56.822;26.056;2023-12-28T06:50:21;6.75;;;1.70;;
20533;SDS011;12929;56.822;26.056;2023-12-28T06:52:48;10.40;;;1.73;;
20533;SDS011;12929;56.822;26.056;2023-12-28T06:55:16;8.65;;;1.88;;
20533;SDS011;12929;56.822;26.056;2023-12-28T06:57:43;8.13;;;1.67;;
20533;SDS011;12929;56.822;26.056;2023-12-28T07:00:11;7.63;;;1.95;;
20533;SDS011;12929;56.822;26.056;2023-12-28T07:02:39;4.75;;;1.92;;
20533;SDS011;12929;56.822;26.056;2023-12-28T07:05:07;9.80;;;2.13;;
20533;SDS011;12929;56.822;26.056;2023-12-28T07:07:35;7.72;;;2.20;;
20533;SDS011;12929;56.822;26.056;2023-12-28T07:10:03;7.22;;;1.95;;
20533;SDS011;12929;56.822;26.056;2023-12-28T07:12:31;9.68;;;2.17;;
20533;SDS011;12929;56.822;26.056;2023-12-28T07:14:59;9.63;;;1.98;;
20533;SDS011;12929;56.822;26.056;2023-12-28T07:17:27;9.70;;;2.78;;
20533;SDS011;12929;56.822;26.056;2023-12-28T07:19:54;5.22;;;2.08;;
20533;SDS011;12929;56.822;26.056;2023-12-28T07:22:22;7.05;;;2.10;;
20533;SDS011;12929;56.822;26.056;2023-12-28T07:24:50;7.65;;;2.10;;
20533;SDS011;12929;56.822;26.056;2023-12-28T07:27:17;12.13;;;2.10;;
20533;SDS011;12929;56.822;26.056;2023-12-28T07:29:45;12.18;;;2.10;;
20533;SDS011;12929;56.822;26.056;2023-12-28T07:32:12;8.20;;;2.42;;
20533;SDS011;12929;56.822;26.056;2023-12-28T07:34:40;11.50;;;2.85;;
20533;SDS011;12929;56.822;26.056;2023-12-28T07:37:08;14.13;;;2.90;;
20533;SDS011;12929;56.822;26.056;2023-12-28T07:39:36;9.02;;;2.78;;
20533;SDS011;12929;56.822;26.056;2023-12-28T07:42:04;7.88;;;1.73;;
20533;SDS011;12929;56.822;26.056;2023-12-28T07:44:32;11.18;;;2.38;;
20533;SDS011;12929;56.822;26.056;2023-12-28T07:46:59;10.15;;;2.30;;
20533;SDS011;12929;56.822;26.056;2023-12-28T07:49:27;8.35;;;2.50;;
20533;SDS011;12929;56.822;26.056;2023-12-28T07:51:55;8.80;;;2.25;;
20533;SDS011;12929;56.822;26.056;2023-12-28T07:54:23;7.90;;;2.13;;
20533;SDS011;12929;56.822;26.056;2023-12-28T07:56:51;7.22;;;2.25;;
20533;SDS011;12929;56.822;26.056;2023-12-28T07:59:18;14.07;;;2.97;;
20533;SDS011;12929;56.822;26.056;2023-12-28T08:01:46;8.10;;;2.33;;
20533;SDS011;12929;56.822;26.056;2023-12-28T08:04:13;9.95;;;2.97;;
20533;SDS011;12929;56.822;26.056;2023-12-28T08:06:41;8.15;;;2.33;;
20533;SDS011;12929;56.822;26.056;2023-12-28T08:09:09;10.68;;;3.30;;
20533;SDS011;12929;56.822;26.056;2023-12-28T08:11:36;7.45;;;2.70;;
20533;SDS011;12929;56.822;26.056;2023-12-28T08:14:05;9.25;;;2.95;;
20533;SDS011;12929;56.822;26.056;2023-12-28T08:16:32;9.20;;;3.17;;
20533;SDS011;12929;56.822;26.056;2023-12-28T08:19:02;10.65;;;2.60;;
20533;SDS011;12929;56.822;26.056;2023-12-28T08:21:29;10.10;;;2.63;;
20533;SDS011;12929;56.822;26.056;2023-12-28T08:23:57;6.13;;;2.50;;
20533;SDS011;12929;56.822;26.056;2023-12-28T08:26:24;10.25;;;3.20;;
20533;SDS011;12929;56.822;26.056;2023-12-28T08:28:53;12.05;;;3.20;;
20533;SDS011;12929;56.822;26.056;2023-12-28T08:31:20;12.93;;;3.50;;
20533;SDS011;12929;56.822;26.056;2023-12-28T08:33:48;11.55;;;3.15;;
20533;SDS011;12929;56.822;26.056;2023-12-28T08:36:16;10.85;;;4.43;;
20533;SDS011;12929;56.822;26.056;2023-12-28T08:38:44;16.38;;;4.70;;
20533;SDS011;12929;56.822;26.056;2023-12-28T08:41:18;12.45;;;4.15;;
20533;SDS011;12929;56.822;26.056;2023-12-28T08:43:51;7.53;;;3.42;;
20533;SDS011;12929;56.822;26.056;2023-12-28T08:46:23;16.10;;;4.32;;
20533;SDS011;12929;56.822;26.056;2023-12-28T08:48:54;16.38;;;4.45;;
20533;SDS011;12929;56.822;26.056;2023-12-28T08:51:21;15.00;;;4.32;;
20533;SDS011;12929;56.822;26.056;2023-12-28T08:53:49;15.80;;;4.60;;
20533;SDS011;12929;56.822;26.056;2023-12-28T08:56:17;11.93;;;4.80;;
20533;SDS011;12929;56.822;26.056;2023-12-28T08:58:49;11.80;;;3.85;;
20533;SDS011;12929;56.822;26.056;2023-12-28T09:01:18;18.13;;;5.38;;
20533;SDS011;12929;56.822;26.056;2023-12-28T09:03:50;13.40;;;4.63;;
20533;SDS011;12929;56.822;26.056;2023-12-28T09:06:19;9.18;;;4.07;;
20533;SDS011;12929;56.822;26.056;2023-12-28T09:08:48;16.92;;;4.68;;
20533;SDS011;12929;56.822;26.056;2023-12-28T09:11:17;8.05;;;3.05;;
20533;SDS011;12929;56.822;26.056;2023-12-28T09:13:45;9.73;;;2.55;;
20533;SDS011;12929;56.822;26.056;2023-12-28T09:16:13;5.43;;;2.55;;
20533;SDS011;12929;56.822;26.056;2023-12-28T09:18:42;8.52;;;3.65;;
20533;SDS011;12929;56.822;26.056;2023-12-28T09:21:10;6.97;;;2.65;;
20533;SDS011;12929;56.822;26.056;2023-12-28T09:23:38;13.23;;;3.83;;
20533;SDS011;12929;56.822;26.056;2023-12-28T09:26:09;10.57;;;3.15;;
20533;SDS011;12929;56.822;26.056;2023-12-28T09:28:37;13.00;;;3.40;;
20533;SDS011;12929;56.822;26.056;2023-12-28T09:31:06;9.32;;;3.00;;
20533;SDS011;12929;56.822;26.056;2023-12-28T09:33:34;12.02;;;2.40;;
20533;SDS011;12929;56.822;26.056;2023-12-28T09:36:05;11.27;;;2.70;;
20533;SDS011;12929;56.822;26.056;2023-12-28T09:38:35;7.38;;;2.30;;
20533;SDS011;12929;56.822;26.056;2023-12-28T09:41:06;10.18;;;2.70;;
20533;SDS011;12929;56.822;26.056;2023-12-28T09:46:41;12.25;;;2.00;;
20533;SDS011;12929;56.822;26.056;2023-12-28T09:49:12;6.95;;;1.70;;
20533;SDS011;12929;56.822;26.056;2023-12-28T09:51:40;5.63;;;1.67;;
20533;SDS011;12929;56.822;26.056;2023-12-28T09:54:09;11.93;;;1.90;;
20533;SDS011;12929;56.822;26.056;2023-12-28T09:56:36;9.65;;;1.83;;
20533;SDS011;12929;56.822;26.056;2023-12-28T09:59:05;10.60;;;1.95;;
20533;SDS011;12929;56.822;26.056;2023-12-28T10:01:34;7.95;;;1.73;;
20533;SDS011;12929;56.822;26.056;2023-12-28T10:04:03;10.90;;;1.83;;
20533;SDS011;12929;56.822;26.056;2023-12-28T10:06:30;6.68;;;1.48;;
20533;SDS011;12929;56.822;26.056;2023-12-28T10:08:58;9.93;;;1.70;;
20533;SDS011;12929;56.822;26.056;2023-12-28T10:11:27;7.35;;;1.70;;
20533;SDS011;12929;56.822;26.056;2023-12-28T10:13:55;12.07;;;1.70;;
20533;SDS011;12929;56.822;26.056;2023-12-28T10:16:24;6.68;;;1.38;;
20533;SDS011;12929;56.822;26.056;2023-12-28T10:18:52;10.98;;;1.95;;
20533;SDS011;12929;56.822;26.056;2023-12-28T10:21:24;8.98;;;2.00;;
20533;SDS011;12929;56.822;26.056;2023-12-28T10:23:52;6.53;;;1.50;;
20533;SDS011;12929;56.822;26.056;2023-12-28T10:26:20;7.03;;;2.05;;
20533;SDS011;12929;56.822;26.056;2023-12-28T10:28:50;8.32;;;1.73;;
20533;SDS011;12929;56.822;26.056;2023-12-28T10:31:24;11.20;;;1.50;;
20533;SDS011;12929;56.822;26.056;2023-12-28T10:33:53;5.78;;;1.50;;
20533;SDS011;12929;56.822;26.056;2023-12-28T10:36:21;9.65;;;1.92;;
20533;SDS011;12929;56.822;26.056;2023-12-28T10:38:49;12.60;;;2.10;;
20533;SDS011;12929;56.822;26.056;2023-12-28T10:41:20;11.77;;;1.73;;
20533;SDS011;12929;56.822;26.056;2023-12-28T10:44:01;8.20;;;1.83;;
20533;SDS011;12929;56.822;26.056;2023-12-28T10:46:38;11.38;;;1.80;;
20533;SDS011;12929;56.822;26.056;2023-12-28T10:49:10;11.10;;;2.00;;
20533;SDS011;12929;56.822;26.056;2023-12-28T10:51:41;7.20;;;1.75;;
20533;SDS011;12929;56.822;26.056;2023-12-28T10:57:21;6.03;;;1.92;;
20533;SDS011;12929;56.822;26.056;2023-12-28T11:00:10;5.90;;;2.30;;
20533;SDS011;12929;56.822;26.056;2023-12-28T11:02:51;7.72;;;2.67;;
20533;SDS011;12929;56.822;26.056;2023-12-28T11:05:26;7.40;;;2.40;;
20533;SDS011;12929;56.822;26.056;2023-12-28T11:07:54;7.65;;;1.88;;
20533;SDS011;12929;56.822;26.056;2023-12-28T11:10:25;8.40;;;2.40;;
20533;SDS011;12929;56.822;26.056;2023-12-28T11:12:53;6.53;;;2.28;;
20533;SDS011;12929;56.822;26.056;2023-12-28T11:15:21;8.07;;;2.28;;
20533;SDS011;12929;56.822;26.056;2023-12-28T11:17:50;13.65;;;2.70;;
20533;SDS011;12929;56.822;26.056;2023-12-28T11:20:19;10.60;;;2.58;;
20533;SDS011;12929;56.822;26.056;2023-12-28T11:22:48;11.32;;;3.13;;
20533;SDS011;12929;56.822;26.056;2023-12-28T11:25:17;8.30;;;2.50;;
20533;SDS011;12929;56.822;26.056;2023-12-28T11:27:46;9.20;;;2.60;;
20533;SDS011;12929;56.822;26.056;2023-12-28T11:30:14;11.77;;;3.15;;
20533;SDS011;12929;56.822;26.056;2023-12-28T11:32:42;12.70;;;2.95;;
20533;SDS011;12929;56.822;26.056;2023-12-28T11:35:11;6.53;;;2.28;;
20533;SDS011;12929;56.822;26.056;2023-12-28T11:37:46;12.55;;;3.38;;
20533;SDS011;12929;56.822;26.056;2023-12-28T11:40:18;7.65;;;2.83;;
20533;SDS011;12929;56.822;26.056;2023-12-28T11:42:50;11.95;;;3.80;;
20533;SDS011;12929;56.822;26.056;2023-12-28T11:45:25;15.95;;;5.03;;
20533;SDS011;12929;56.822;26.056;2023-12-28T11:47:58;18.50;;;5.60;;
20533;SDS011;12929;56.822;26.056;2023-12-28T11:50:32;16.05;;;5.18;;
20533;SDS011;12929;56.822;26.056;2023-12-28T11:53:05;12.45;;;4.60;;
20533;SDS011;12929;56.822;26.056;2023-12-28T11:55:32;12.68;;;4.03;;
20533;SDS011;12929;56.822;26.056;2023-12-28T11:58:00;12.95;;;4.55;;
20533;SDS011;12929;56.822;26.056;2023-12-28T12:00:27;10.43;;;4.25;;
20533;SDS011;12929;56.822;26.056;2023-12-28T12:02:55;13.85;;;3.88;;
20533;SDS011;12929;56.822;26.056;2023-12-28T12:05:24;14.75;;;4.47;;
20533;SDS011;12929;56.822;26.056;2023-12-28T12:07:52;15.63;;;4.75;;
20533;SDS011;12929;56.822;26.056;2023-12-28T12:10:20;13.75;;;4.28;;
20533;SDS011;12929;56.822;26.056;2023-12-28T12:12:51;14.68;;;4.05;;
20533;SDS011;12929;56.822;26.056;2023-12-28T12:15:20;26.05;;;12.35;;
20533;SDS011;12929;56.822;26.056;2023-12-28T12:17:48;18.77;;;8.88;;
20533;SDS011;12929;56.822;26.056;2023-12-28T12:20:16;18.80;;;13.65;;
20533;SDS011;12929;56.822;26.056;2023-12-28T12:22:44;23.98;;;17.17;;
20533;SDS011;12929;56.822;26.056;2023-12-28T12:25:12;37.08;;;24.35;;
20533;SDS011;12929;56.822;26.056;2023-12-28T12:27:39;31.13;;;20.20;;
20533;SDS011;12929;56.822;26.056;2023-12-28T12:30:07;15.43;;;7.80;;
20533;SDS011;12929;56.822;26.056;2023-12-28T12:32:35;14.80;;;5.97;;
20533;SDS011;12929;56.822;26.056;2023-12-28T12:35:10;15.02;;;8.32;;
20533;SDS011;12929;56.822;26.056;2023-12-28T12:37:38;15.38;;;10.18;;
20533;SDS011;12929;56.822;26.056;2023-12-28T12:40:07;17.63;;;10.18;;
20533;SDS011;12929;56.822;26.056;2023-12-28T12:42:37;18.67;;;9.95;;
20533;SDS011;12929;56.822;26.056;2023-12-28T12:45:07;12.95;;;5.43;;
20533;SDS011;12929;56.822;26.056;2023-12-28T12:47:35;7.22;;;4.25;;
20533;SDS011;12929;56.822;26.056;2023-12-28T12:50:03;13.27;;;10.07;;
20533;SDS011;12929;56.822;26.056;2023-12-28T12:52:31;17.42;;;6.32;;
20533;SDS011;12929;56.822;26.056;2023-12-28T12:54:59;10.93;;;4.20;;
20533;SDS011;12929;56.822;26.056;2023-12-28T12:57:40;10.18;;;4.68;;
20533;SDS011;12929;56.822;26.056;2023-12-28T13:00:09;7.00;;;3.60;;
20533;SDS011;12929;56.822;26.056;2023-12-28T13:02:41;8.10;;;3.70;;
20533;SDS011;12929;56.822;26.056;2023-12-28T13:05:08;10.63;;;3.60;;
20533;SDS011;12929;56.822;26.056;2023-12-28T13:07:39;11.90;;;3.97;;
20533;SDS011;12929;56.822;26.056;2023-12-28T13:10:08;13.65;;;8.63;;
20533;SDS011;12929;56.822;26.056;2023-12-28T13:12:36;13.85;;;6.70;;
20533;SDS011;12929;56.822;26.056;2023-12-28T13:15:04;11.85;;;6.10;;
20533;SDS011;12929;56.822;26.056;2023-12-28T13:17:33;10.45;;;3.85;;
20533;SDS011;12929;56.822;26.056;2023-12-28T13:20:00;14.18;;;5.35;;
20533;SDS011;12929;56.822;26.056;2023-12-28T13:22:28;11.13;;;5.95;;
20533;SDS011;12929;56.822;26.056;2023-12-28T13:24:55;10.82;;;4.95;;
20533;SDS011;12929;56.822;26.056;2023-12-28T13:27:24;10.20;;;7.20;;
20533;SDS011;12929;56.822;26.056;2023-12-28T13:29:51;11.65;;;6.75;;
20533;SDS011;12929;56.822;26.056;2023-12-28T13:32:19;12.23;;;5.70;;
20533;SDS011;12929;56.822;26.056;2023-12-28T13:34:46;14.23;;;8.13;;
20533;SDS011;12929;56.822;26.056;2023-12-28T13:37:14;19.15;;;11.23;;
20533;SDS011;12929;56.822;26.056;2023-12-28T13:39:41;15.20;;;6.85;;
20533;SDS011;12929;56.822;26.056;2023-12-28T13:42:09;10.85;;;4.97;;
20533;SDS011;12929;56.822;26.056;2023-12-28T13:44:37;17.70;;;11.02;;
20533;SDS011;12929;56.822;26.056;2023-12-28T13:47:05;14.38;;;7.38;;
20533;SDS011;12929;56.822;26.056;2023-12-28T13:49:37;13.80;;;6.60;;
20533;SDS011;12929;56.822;26.056;2023-12-28T13:52:05;12.20;;;4.07;;
20533;SDS011;12929;56.822;26.056;2023-12-28T13:54:36;11.60;;;5.22;;
20533;SDS011;12929;56.822;26.056;2023-12-28T13:57:03;11.70;;;4.00;;
20533;SDS011;12929;56.822;26.056;2023-12-28T13:59:32;10.40;;;4.57;;
20533;SDS011;12929;56.822;26.056;2023-12-28T14:02:01;9.13;;;3.60;;
20533;SDS011;12929;56.822;26.056;2023-12-28T14:04:28;13.90;;;4.03;;
20533;SDS011;12929;56.822;26.056;2023-12-28T14:06:56;10.35;;;4.07;;
20533;SDS011;12929;56.822;26.056;2023-12-28T14:09:24;14.43;;;3.63;;
20533;SDS011;12929;56.822;26.056;2023-12-28T14:11:53;17.35;;;7.85;;
20533;SDS011;12929;56.822;26.056;2023-12-28T14:14:20;15.27;;;7.93;;
20533;SDS011;12929;56.822;26.056;2023-12-28T14:16:48;15.45;;;5.28;;
20533;SDS011;12929;56.822;26.056;2023-12-28T14:19:15;14.77;;;8.25;;
20533;SDS011;12929;56.822;26.056;2023-12-28T14:21:43;13.38;;;5.72;;
20533;SDS011;12929;56.822;26.056;2023-12-28T14:24:11;10.10;;;4.85;;
20533;SDS011;12929;56.822;26.056;2023-12-28T14:26:42;13.10;;;5.57;;
20533;SDS011;12929;56.822;26.056;2023-12-28T14:29:13;12.60;;;5.20;;
20533;SDS011;12929;56.822;26.056;2023-12-28T14:31:42;14.45;;;4.55;;
20533;SDS011;12929;56.822;26.056;2023-12-28T14:34:11;16.85;;;7.20;;
20533;SDS011;12929;56.822;26.056;2023-12-28T14:36:39;13.77;;;5.95;;
20533;SDS011;12929;56.822;26.056;2023-12-28T14:39:07;17.08;;;5.93;;
20533;SDS011;12929;56.822;26.056;2023-12-28T14:41:36;12.18;;;5.32;;
20533;SDS011;12929;56.822;26.056;2023-12-28T14:44:09;26.83;;;5.75;;